Folkston, GA (31537)

2:04 PM EST on February 08, 2016 (GMT -0500)
Riverside | | Change Station
CLOSE
Current Station
Personal Weather Station
Location: Folkston, GA
Elevation: 84 ft
Nearby Weather Stations

Elev 84 ft 30.98 °N, 81.96 °W | Updated 1 minute ago

Clear
Clear
63.9 °F
Feels Like 63.9 °F
N
4.0
Wind Variable Wind from West
Gusts 7.0 mph

Today
High -- | Low -- °F
--% Chance of Precip.
Yesterday
High -- | Low -- °F
Precip. -- in
Pressure 29.81 in
Visibility 10.0 miles
Clouds Clear
Dew Point 38 °F
Humidity 38%
Rainfall 0.00 in
Snow Depth Not available.
7:15 AM 6:09 PM
New Moon, 0% visible
METAR KAYS 081855Z AUTO 26012G21KT 10SM CLR 19/02 A2981 RMK AO2 T01890020
Pressure 29.81 in
Visibility 10.0 miles
Clouds Clear
Dew Point 38 °F
Humidity 38%
Rainfall 0.00 in
Snow Depth Not available.
7:15 AM 6:09 PM
New Moon, 0% visible
METAR KAYS 081855Z AUTO 26012G21KT 10SM CLR 19/02 A2981 RMK AO2 T01890020

10-Day Weather Forecast

Almanac

Astronomy

Feb. 08, 2016 Rise Set
Actual Time
Civil Twilight
Nautical Twilight
Astronomical Twilight
Moon
Length of Visible Light
Length of Day
Tomorrow will be .
, % of the Moon is Illuminated

Today's Extremes

State Highs State Lows

Community

WunderPhotos

Upload Photos

1,891,485 photos uploaded!

WunderBlog® & News

Nearby

Air Quality

  Air Quality AQ Index Pollutant
Not available.

Snow Depth

Station Depth Elevation

Earthquake Activity

City Distance Mag. Time & Date
Minimum magnitude displayed is 2.5.

Coastal Water Temperatures

Place Temperature

Stations

Nearby Weather Stations

Station Location Temp. Windchill Dew Point Humidity Wind Precip. Elev Updated Type
                   

Watches & Warnings

There are currently no watches in effect.